createdAt,value
2022-09-23T00:01:01.459Z,9.84
2022-09-23T00:03:30.078Z,9.82
2022-09-23T00:06:11.726Z,9.78
2022-09-23T00:08:38.889Z,9.76
2022-09-23T00:11:08.131Z,9.76
2022-09-23T00:13:36.551Z,9.76
2022-09-23T00:16:05.568Z,9.72
2022-09-23T00:18:32.316Z,9.72
2022-09-23T00:21:06.013Z,9.69
2022-09-23T00:23:33.072Z,9.65
2022-09-23T00:26:01.757Z,9.62
2022-09-23T00:28:28.919Z,9.58
2022-09-23T00:30:55.377Z,9.55
2022-09-23T00:33:21.754Z,9.50
2022-09-23T00:35:48.577Z,9.51
2022-09-23T00:38:15.162Z,9.47
2022-09-23T00:40:46.034Z,9.46
2022-09-23T00:43:14.864Z,9.46
2022-09-23T00:45:47.550Z,9.47
2022-09-23T00:48:20.571Z,9.48
2022-09-23T00:50:51.954Z,9.50
2022-09-23T00:53:22.613Z,9.49
2022-09-23T00:55:56.919Z,9.48
2022-09-23T00:58:31.128Z,9.48
2022-09-23T01:01:00.489Z,9.48
2022-09-23T01:03:27.937Z,9.47
2022-09-23T01:05:55.289Z,9.46
2022-09-23T01:08:23.538Z,9.46
2022-09-23T01:10:59.164Z,9.45
2022-09-23T01:13:25.646Z,9.44
2022-09-23T01:16:19.860Z,9.45
2022-09-23T01:19:23.943Z,9.40
2022-09-23T01:22:04.904Z,9.37
2022-09-23T01:25:02.120Z,9.34
2022-09-23T01:27:43.016Z,9.31
2022-09-23T01:30:16.763Z,9.29
2022-09-23T01:32:59.805Z,9.28
2022-09-23T01:35:31.175Z,9.26
2022-09-23T01:38:19.120Z,9.25
2022-09-23T01:40:52.680Z,9.23
2022-09-23T01:43:40.247Z,9.19
2022-09-23T01:46:17.536Z,9.19
2022-09-23T01:48:55.395Z,9.17
2022-09-23T01:51:28.764Z,9.15
2022-09-23T01:54:08.373Z,9.14
2022-09-23T01:56:58.676Z,9.13
2022-09-23T01:59:43.042Z,9.11
2022-09-23T02:02:19.274Z,9.10
2022-09-23T02:04:57.258Z,9.08
2022-09-23T02:07:43.291Z,9.07
2022-09-23T02:10:23.990Z,9.05
2022-09-23T02:12:54.853Z,9.03
2022-09-23T02:15:25.288Z,9.02
2022-09-23T02:18:01.208Z,9.01
2022-09-23T02:20:34.537Z,9.00
2022-09-23T02:23:13.042Z,9.00
2022-09-23T02:26:05.699Z,9.00
2022-09-23T02:28:46.847Z,9.01
2022-09-23T02:31:19.973Z,9.01
2022-09-23T02:33:55.271Z,9.02
2022-09-23T02:36:29.605Z,9.02
2022-09-23T02:39:01.285Z,8.98
2022-09-23T02:41:51.970Z,8.94
2022-09-23T02:44:19.946Z,8.89
2022-09-23T02:46:46.985Z,8.89
2022-09-23T02:49:31.892Z,8.90
2022-09-23T02:52:03.512Z,8.89
2022-09-23T02:54:30.824Z,8.88
2022-09-23T02:57:04.456Z,8.85
2022-09-23T02:59:32.324Z,8.85
2022-09-23T03:02:16.712Z,8.84
2022-09-23T03:05:25.196Z,8.80
2022-09-23T03:07:57.493Z,8.80
2022-09-23T03:10:30.039Z,8.80
2022-09-23T03:12:59.464Z,8.79
2022-09-23T03:15:38.278Z,8.76
2022-09-23T03:18:20.353Z,8.71
2022-09-23T03:20:55.219Z,8.68
2022-09-23T03:23:26.078Z,8.65
2022-09-23T03:25:55.574Z,8.65
2022-09-23T03:28:23.553Z,8.61
2022-09-23T03:30:52.849Z,8.60
2022-09-23T03:33:28.533Z,8.56
2022-09-23T03:36:22.585Z,8.56
2022-09-23T03:38:52.677Z,8.53
2022-09-23T03:41:30.224Z,8.54
2022-09-23T03:43:59.777Z,8.53
2022-09-23T03:46:30.144Z,8.52
2022-09-23T03:49:04.213Z,8.51
2022-09-23T03:51:30.750Z,8.48
2022-09-23T03:53:57.465Z,8.47
2022-09-23T03:56:23.941Z,8.47
2022-09-23T03:58:50.395Z,8.46
2022-09-23T04:01:16.870Z,8.46
2022-09-23T04:03:43.373Z,8.45
2022-09-23T04:06:09.806Z,8.44
2022-09-23T04:08:36.205Z,8.42
2022-09-23T04:11:04.701Z,8.43
2022-09-23T04:13:31.813Z,8.42
2022-09-23T04:15:58.441Z,8.39
2022-09-23T04:18:24.886Z,8.37
2022-09-23T04:20:51.242Z,8.36
2022-09-23T04:23:17.609Z,8.32
2022-09-23T04:25:48.365Z,8.31
2022-09-23T04:28:15.051Z,8.32
2022-09-23T04:30:46.097Z,8.28
2022-09-23T04:33:13.547Z,8.24
2022-09-23T04:35:42.879Z,8.23
2022-09-23T04:38:12.850Z,8.22
2022-09-23T04:40:39.393Z,8.21
2022-09-23T04:43:05.847Z,8.21
2022-09-23T04:45:32.304Z,8.21
2022-09-23T04:47:59.274Z,8.18
2022-09-23T04:50:26.762Z,8.17
2022-09-23T04:52:53.972Z,8.14
2022-09-23T04:55:21.340Z,8.12
2022-09-23T04:57:47.831Z,8.11
2022-09-23T05:00:15.820Z,8.10
2022-09-23T05:02:44.352Z,8.10
2022-09-23T05:05:10.982Z,8.07
2022-09-23T05:07:37.540Z,8.01
2022-09-23T05:10:04.458Z,7.99
2022-09-23T05:12:30.853Z,7.99
2022-09-23T05:14:57.478Z,7.97
2022-09-23T05:17:23.974Z,7.95
2022-09-23T05:19:50.331Z,7.94
2022-09-23T05:22:16.805Z,7.89
2022-09-23T05:24:43.417Z,7.84
2022-09-23T05:27:09.773Z,7.84
2022-09-23T05:29:36.148Z,7.83
2022-09-23T05:32:02.573Z,7.81
2022-09-23T05:34:29.015Z,7.79
2022-09-23T05:36:55.411Z,7.78
2022-09-23T05:39:21.756Z,7.77
2022-09-23T05:41:48.956Z,7.75
2022-09-23T05:44:15.316Z,7.75
2022-09-23T05:46:41.752Z,7.73
2022-09-23T05:49:08.273Z,7.72
2022-09-23T05:51:35.775Z,7.74
2022-09-23T05:54:04.150Z,7.74
2022-09-23T05:56:32.440Z,7.76
2022-09-23T05:59:00.366Z,7.76
2022-09-23T06:01:28.858Z,7.77
2022-09-23T06:03:57.428Z,7.79
2022-09-23T06:06:44.113Z,7.78
2022-09-23T06:09:14.586Z,7.79
2022-09-23T06:11:41.532Z,7.81
2022-09-23T06:14:12.060Z,7.82
2022-09-23T06:16:38.458Z,7.83
2022-09-23T06:19:07.996Z,7.86
2022-09-23T06:21:36.928Z,7.89
2022-09-23T06:24:04.086Z,7.93
2022-09-23T06:26:33.518Z,7.96
2022-09-23T06:29:01.609Z,8.03
2022-09-23T06:31:28.287Z,8.11
2022-09-23T06:34:05.295Z,8.21
2022-09-23T06:36:43.111Z,8.29
2022-09-23T06:39:10.667Z,8.40
2022-09-23T06:41:37.027Z,8.54
2022-09-23T06:44:03.481Z,8.67
2022-09-23T06:46:31.185Z,8.79
2022-09-23T06:48:57.757Z,8.87
2022-09-23T06:51:24.090Z,8.98
2022-09-23T06:53:50.539Z,9.06
2022-09-23T06:56:19.676Z,9.17
2022-09-23T06:58:46.169Z,9.29
2022-09-23T07:01:17.802Z,9.41
2022-09-23T07:03:46.064Z,9.52
2022-09-23T07:06:12.557Z,9.61
2022-09-23T07:08:40.369Z,9.69
2022-09-23T07:11:11.056Z,9.77
2022-09-23T07:13:37.766Z,9.79
2022-09-23T07:16:04.701Z,9.86
2022-09-23T07:18:36.735Z,9.91
2022-09-23T07:21:15.976Z,9.94
2022-09-23T07:23:45.911Z,9.97
2022-09-23T07:26:13.543Z,10.02
2022-09-23T07:28:40.391Z,10.05
2022-09-23T07:31:13.480Z,10.13
2022-09-23T07:33:44.279Z,10.19
2022-09-23T07:36:18.872Z,10.23
2022-09-23T07:38:47.314Z,10.34
2022-09-23T07:41:16.845Z,10.42
2022-09-23T07:43:44.339Z,10.50
2022-09-23T07:46:16.748Z,10.59
2022-09-23T07:48:44.602Z,10.65
2022-09-23T07:51:18.702Z,10.75
2022-09-23T07:53:51.184Z,10.82
2022-09-23T07:56:19.377Z,10.89
2022-09-23T07:59:01.722Z,10.97
2022-09-23T08:01:31.467Z,11.02
2022-09-23T08:03:59.822Z,11.06
2022-09-23T08:06:26.480Z,11.18
2022-09-23T08:08:53.709Z,11.21
2022-09-23T08:11:20.527Z,11.26
2022-09-23T08:13:47.703Z,11.36
2022-09-23T08:16:14.303Z,11.47
2022-09-23T08:18:43.943Z,11.61
2022-09-23T08:21:10.330Z,11.77
2022-09-23T08:23:36.702Z,11.87
2022-09-23T08:26:10.282Z,11.92
2022-09-23T08:28:38.327Z,11.91
2022-09-23T08:31:05.241Z,12.06
2022-09-23T08:33:31.669Z,12.16
2022-09-23T08:36:02.656Z,12.24
2022-09-23T08:38:29.938Z,12.33
2022-09-23T08:41:24.707Z,12.40
2022-09-23T08:44:35.938Z,12.43
2022-09-23T08:47:32.125Z,12.57
2022-09-23T08:50:14.692Z,12.72
2022-09-23T08:53:05.453Z,12.87
2022-09-23T08:55:40.091Z,13.06
2022-09-23T08:58:29.220Z,13.18
2022-09-23T09:01:33.358Z,13.27
2022-09-23T09:04:20.482Z,13.50
2022-09-23T09:06:54.358Z,13.70
2022-09-23T09:09:26.496Z,13.91
2022-09-23T09:12:02.818Z,14.08
2022-09-23T09:14:35.406Z,14.27
2022-09-23T09:17:07.883Z,14.40
2022-09-23T09:20:03.266Z,14.48
2022-09-23T09:22:43.148Z,14.58
2022-09-23T09:25:36.199Z,14.72
2022-09-23T09:28:11.212Z,14.81
2022-09-23T09:30:38.295Z,14.89
2022-09-23T09:33:14.228Z,15.08
2022-09-23T09:36:08.954Z,15.16
2022-09-23T09:38:36.670Z,15.09
2022-09-23T09:41:13.683Z,14.96
2022-09-23T09:43:49.111Z,14.98
2022-09-23T09:46:40.562Z,14.96
2022-09-23T09:49:45.425Z,14.99
2022-09-23T09:52:20.785Z,15.08
2022-09-23T09:54:49.219Z,15.09
2022-09-23T09:57:33.580Z,15.21
2022-09-23T10:00:25.322Z,15.30
2022-09-23T10:02:53.798Z,15.49
2022-09-23T10:05:27.060Z,15.65
2022-09-23T10:07:54.471Z,15.78
2022-09-23T10:10:33.656Z,15.83
2022-09-23T10:13:15.633Z,15.83
2022-09-23T10:15:45.184Z,15.97
2022-09-23T10:18:28.181Z,16.13
2022-09-23T10:21:01.546Z,16.33
2022-09-23T10:23:29.150Z,16.38
2022-09-23T10:26:00.720Z,16.29
2022-09-23T10:28:32.549Z,16.18
2022-09-23T10:31:32.942Z,16.28
2022-09-23T10:34:02.394Z,16.26
2022-09-23T10:36:32.861Z,16.24
2022-09-23T10:39:21.447Z,16.27
2022-09-23T10:42:36.396Z,16.33
2022-09-23T10:45:39.743Z,16.37
2022-09-23T10:48:28.868Z,16.83
2022-09-23T10:50:55.938Z,17.00
2022-09-23T10:53:57.417Z,17.15
2022-09-23T10:56:37.744Z,17.20
2022-09-23T10:59:33.999Z,17.37
2022-09-23T11:02:15.653Z,17.70
2022-09-23T11:04:55.084Z,17.77
2022-09-23T11:07:36.345Z,17.89
2022-09-23T11:10:45.818Z,18.18
2022-09-23T11:13:55.893Z,18.41
2022-09-23T11:16:49.668Z,18.66
2022-09-23T11:19:45.790Z,18.90
2022-09-23T11:22:18.661Z,19.17
2022-09-23T11:25:08.344Z,19.36
2022-09-23T11:28:10.362Z,19.63
2022-09-23T11:30:51.385Z,19.70
2022-09-23T11:33:41.837Z,20.02
2022-09-23T11:36:17.791Z,20.19
2022-09-23T11:38:48.838Z,20.50
2022-09-23T11:41:25.789Z,20.58
2022-09-23T11:44:15.920Z,20.33
2022-09-23T11:46:46.730Z,20.48
2022-09-23T11:49:28.142Z,20.31
2022-09-23T11:52:10.452Z,20.27
2022-09-23T11:55:20.880Z,20.40
2022-09-23T11:57:51.327Z,20.23
2022-09-23T12:00:27.913Z,20.09
2022-09-23T12:03:18.286Z,19.93
2022-09-23T12:05:48.138Z,19.61
2022-09-23T12:08:25.433Z,19.72
2022-09-23T12:11:00.410Z,19.86
2022-09-23T12:13:54.393Z,19.90
2022-09-23T12:17:05.641Z,20.32
2022-09-23T12:19:34.807Z,20.64
2022-09-23T12:22:13.364Z,20.74
2022-09-23T12:25:06.093Z,20.73
2022-09-23T12:27:43.779Z,20.68
2022-09-23T12:30:20.749Z,20.75
2022-09-23T12:32:47.701Z,20.67
2022-09-23T12:35:25.415Z,20.29
2022-09-23T12:37:52.681Z,20.15
2022-09-23T12:40:40.754Z,20.21
2022-09-23T12:43:16.789Z,20.12
2022-09-23T12:45:43.610Z,20.17
2022-09-23T12:48:16.178Z,20.28
2022-09-23T12:51:15.832Z,20.25
2022-09-23T12:53:53.290Z,20.27
2022-09-23T12:56:21.745Z,20.26
2022-09-23T12:58:48.143Z,20.46
2022-09-23T13:01:14.597Z,20.58
2022-09-23T13:04:17.057Z,20.79
2022-09-23T13:07:06.465Z,21.00
2022-09-23T13:09:40.500Z,21.17
2022-09-23T13:12:17.079Z,21.41
2022-09-23T13:14:46.508Z,21.18
2022-09-23T13:17:34.254Z,21.13
2022-09-23T13:20:06.660Z,20.98
2022-09-23T13:22:42.237Z,20.92
2022-09-23T13:25:24.758Z,21.01
2022-09-23T13:27:54.874Z,21.08
2022-09-23T13:30:26.423Z,21.14
2022-09-23T13:33:14.150Z,21.10
2022-09-23T13:35:51.212Z,21.17
2022-09-23T13:38:26.273Z,21.33
2022-09-23T13:41:00.352Z,21.41
2022-09-23T13:43:41.562Z,21.45
2022-09-23T13:46:18.861Z,21.42
2022-09-23T13:48:47.453Z,21.67
2022-09-23T13:51:26.192Z,21.72
2022-09-23T13:53:55.276Z,21.81
2022-09-23T13:56:22.621Z,21.88
2022-09-23T13:58:49.052Z,21.98
2022-09-23T14:01:34.610Z,22.25
2022-09-23T14:04:02.248Z,22.28
2022-09-23T14:06:31.816Z,22.21
2022-09-23T14:09:01.267Z,22.12
2022-09-23T14:11:33.106Z,22.02
2022-09-23T14:14:01.236Z,21.83
2022-09-23T14:16:28.082Z,21.76
2022-09-23T14:19:00.279Z,21.60
2022-09-23T14:21:36.779Z,21.51
2022-09-23T14:24:10.319Z,21.49
2022-09-23T14:26:37.889Z,21.48
2022-09-23T14:29:04.526Z,21.44
2022-09-23T14:31:32.807Z,21.37
2022-09-23T14:33:59.240Z,21.31
2022-09-23T14:36:44.026Z,21.20
2022-09-23T14:39:12.296Z,21.12
2022-09-23T14:41:42.623Z,21.03
2022-09-23T14:44:21.374Z,20.93
2022-09-23T14:47:11.597Z,20.80
2022-09-23T14:49:58.655Z,20.76
2022-09-23T14:52:25.075Z,20.74
2022-09-23T14:54:51.933Z,20.65
2022-09-23T14:57:31.904Z,20.58
2022-09-23T15:00:13.589Z,20.52
2022-09-23T15:02:44.242Z,20.48
2022-09-23T15:05:14.601Z,20.43
2022-09-23T15:07:42.832Z,20.43
2022-09-23T15:10:23.341Z,20.42
2022-09-23T15:12:52.122Z,20.41
2022-09-23T15:15:18.947Z,20.42
2022-09-23T15:17:46.606Z,20.40
2022-09-23T15:20:15.831Z,20.43
2022-09-23T15:22:44.204Z,20.46
2022-09-23T15:25:24.838Z,20.48
2022-09-23T15:27:59.079Z,20.52
2022-09-23T15:30:26.076Z,20.54
2022-09-23T15:32:52.635Z,20.57
2022-09-23T15:35:21.790Z,20.54
2022-09-23T15:37:51.032Z,20.53
2022-09-23T15:40:23.700Z,20.53
2022-09-23T15:42:54.116Z,20.51
2022-09-23T15:45:42.977Z,20.50
2022-09-23T15:48:13.865Z,20.45
2022-09-23T15:50:41.211Z,20.40
2022-09-23T15:53:10.099Z,20.33
2022-09-23T15:55:36.449Z,20.29
2022-09-23T15:58:02.851Z,20.24
2022-09-23T16:00:29.474Z,20.16
2022-09-23T16:02:55.841Z,20.11
2022-09-23T16:05:35.764Z,20.05
2022-09-23T16:08:08.944Z,19.99
2022-09-23T16:10:37.268Z,19.91
2022-09-23T16:13:06.758Z,19.85
2022-09-23T16:15:33.711Z,19.75
2022-09-23T16:18:00.677Z,19.66
2022-09-23T16:20:29.718Z,19.56
2022-09-23T16:23:02.086Z,19.45
2022-09-23T16:25:31.422Z,19.28
2022-09-23T16:27:58.378Z,19.19
2022-09-23T16:30:26.554Z,19.06
2022-09-23T16:32:53.111Z,18.95
2022-09-23T16:35:20.651Z,18.87
2022-09-23T16:37:47.796Z,18.79
2022-09-23T16:40:20.494Z,18.70
2022-09-23T16:42:52.343Z,18.60
2022-09-23T16:45:22.889Z,18.50
2022-09-23T16:47:51.494Z,18.40
2022-09-23T16:50:20.722Z,18.32
2022-09-23T16:52:47.273Z,18.22
2022-09-23T16:55:14.178Z,18.16
2022-09-23T16:57:41.083Z,18.10
2022-09-23T17:00:30.991Z,18.03
2022-09-23T17:03:16.758Z,17.94
2022-09-23T17:05:46.586Z,17.86
2022-09-23T17:08:14.908Z,17.81
2022-09-23T17:10:45.028Z,17.75
2022-09-23T17:13:17.527Z,17.66
2022-09-23T17:15:44.083Z,17.57
2022-09-23T17:18:11.114Z,17.51
2022-09-23T17:20:38.688Z,17.45
2022-09-23T17:23:05.889Z,17.37
2022-09-23T17:25:33.984Z,17.30
2022-09-23T17:28:00.816Z,17.22
2022-09-23T17:30:28.773Z,17.14
2022-09-23T17:32:55.133Z,17.07
2022-09-23T17:35:21.627Z,17.01
2022-09-23T17:37:47.984Z,16.97
2022-09-23T17:40:14.648Z,16.91
2022-09-23T17:42:41.726Z,16.83
2022-09-23T17:45:10.260Z,16.77
2022-09-23T17:47:41.319Z,16.68
2022-09-23T17:50:08.277Z,16.58
2022-09-23T17:52:34.629Z,16.49
2022-09-23T17:55:01.049Z,16.42
2022-09-23T17:57:27.429Z,16.32
2022-09-23T17:59:53.857Z,16.27
2022-09-23T18:02:22.409Z,16.22
2022-09-23T18:04:48.849Z,16.15
2022-09-23T18:07:15.250Z,16.10
2022-09-23T18:09:41.618Z,16.05
2022-09-23T18:12:08.026Z,16.04
2022-09-23T18:14:34.392Z,16.01
2022-09-23T18:17:00.788Z,15.97
2022-09-23T18:19:27.150Z,15.93
2022-09-23T18:21:56.260Z,15.87
2022-09-23T18:24:38.694Z,15.85
2022-09-23T18:27:06.415Z,15.79
2022-09-23T18:29:33.988Z,15.75
2022-09-23T18:32:00.946Z,15.72
2022-09-23T18:34:27.822Z,15.64
2022-09-23T18:36:56.018Z,15.61
2022-09-23T18:39:22.476Z,15.57
2022-09-23T18:41:49.582Z,15.51
2022-09-23T18:44:16.760Z,15.46
2022-09-23T18:46:44.720Z,15.42
2022-09-23T18:49:29.859Z,15.39
2022-09-23T18:51:57.940Z,15.33
2022-09-23T18:54:27.567Z,15.29
2022-09-23T18:56:54.520Z,15.24
2022-09-23T18:59:24.831Z,15.22
2022-09-23T19:01:54.884Z,15.20
2022-09-23T19:04:22.748Z,15.17
2022-09-23T19:06:49.946Z,15.15
2022-09-23T19:09:16.913Z,15.09
2022-09-23T19:11:44.358Z,15.03
2022-09-23T19:14:11.882Z,14.99
2022-09-23T19:16:40.205Z,14.98
2022-09-23T19:19:07.499Z,14.93
2022-09-23T19:21:34.490Z,14.87
2022-09-23T19:24:06.917Z,14.84
2022-09-23T19:26:36.658Z,14.81
2022-09-23T19:29:05.071Z,14.79
2022-09-23T19:31:34.397Z,14.77
2022-09-23T19:34:04.514Z,14.71
2022-09-23T19:36:37.632Z,14.67
2022-09-23T19:39:22.249Z,14.63
2022-09-23T19:41:50.183Z,14.57
2022-09-23T19:44:16.899Z,14.51
2022-09-23T19:46:45.552Z,14.46
2022-09-23T19:49:13.016Z,14.41
2022-09-23T19:51:40.210Z,14.35
2022-09-23T19:54:08.191Z,14.30
2022-09-23T19:56:35.014Z,14.27
2022-09-23T19:59:03.034Z,14.20
2022-09-23T20:01:31.846Z,14.18
2022-09-23T20:03:58.673Z,14.13
2022-09-23T20:06:25.310Z,14.09
2022-09-23T20:08:51.960Z,14.06
2022-09-23T20:11:28.211Z,14.05
2022-09-23T20:14:00.806Z,14.03
2022-09-23T20:16:33.117Z,14.02
2022-09-23T20:19:00.781Z,13.97
2022-09-23T20:21:29.140Z,13.94
2022-09-23T20:23:56.009Z,13.92
2022-09-23T20:26:40.960Z,13.89
2022-09-23T20:29:08.797Z,13.83
2022-09-23T20:31:35.385Z,13.80
2022-09-23T20:34:05.429Z,13.76
2022-09-23T20:36:32.909Z,13.71
2022-09-23T20:39:01.212Z,13.65
2022-09-23T20:41:30.080Z,13.58
2022-09-23T20:44:00.580Z,13.54
2022-09-23T20:46:28.635Z,13.52
2022-09-23T20:48:56.550Z,13.51
2022-09-23T20:51:24.619Z,13.46
2022-09-23T20:53:52.796Z,13.44
2022-09-23T20:56:20.856Z,13.42
2022-09-23T20:58:48.501Z,13.41
2022-09-23T21:01:15.735Z,13.38
2022-09-23T21:03:44.572Z,13.36
2022-09-23T21:06:13.883Z,13.32
2022-09-23T21:08:41.215Z,13.28
2022-09-23T21:11:10.951Z,13.27
2022-09-23T21:13:37.814Z,13.25
2022-09-23T21:16:06.116Z,13.22
2022-09-23T21:18:32.697Z,13.20
2022-09-23T21:21:00.035Z,13.19
2022-09-23T21:23:31.343Z,13.18
2022-09-23T21:26:11.274Z,13.15
2022-09-23T21:28:42.423Z,13.12
2022-09-23T21:31:11.542Z,13.10
2022-09-23T21:33:37.965Z,13.06
2022-09-23T21:36:06.732Z,13.02
2022-09-23T21:38:37.352Z,13.01
2022-09-23T21:41:06.215Z,12.99
2022-09-23T21:43:35.267Z,12.97
2022-09-23T21:46:04.125Z,12.96
2022-09-23T21:48:33.219Z,12.94
2022-09-23T21:51:04.898Z,12.91
2022-09-23T21:53:33.050Z,12.89
2022-09-23T21:56:16.808Z,12.87
2022-09-23T21:58:46.571Z,12.81
2022-09-23T22:01:19.659Z,12.78
2022-09-23T22:03:54.354Z,12.75
2022-09-23T22:06:27.141Z,12.72
2022-09-23T22:08:58.989Z,12.69
2022-09-23T22:11:46.696Z,12.65
2022-09-23T22:14:14.810Z,12.63
2022-09-23T22:16:41.781Z,12.63
2022-09-23T22:19:10.511Z,12.60
2022-09-23T22:21:38.679Z,12.56
2022-09-23T22:24:07.376Z,12.55
2022-09-23T22:26:38.925Z,12.55
2022-09-23T22:29:26.213Z,12.54
2022-09-23T22:32:11.309Z,12.50
2022-09-23T22:34:49.442Z,12.47
2022-09-23T22:37:19.443Z,12.45
2022-09-23T22:39:45.922Z,12.44
2022-09-23T22:42:16.113Z,12.41
2022-09-23T22:44:42.641Z,12.40
2022-09-23T22:47:11.751Z,12.40
2022-09-23T22:49:38.131Z,12.33
2022-09-23T22:52:07.834Z,12.31
2022-09-23T22:54:35.059Z,12.29
2022-09-23T22:57:04.502Z,12.25
2022-09-23T22:59:31.043Z,12.19
2022-09-23T23:01:59.866Z,12.17
2022-09-23T23:04:26.970Z,12.13
2022-09-23T23:06:53.375Z,12.13
2022-09-23T23:09:19.798Z,12.12
2022-09-23T23:11:47.087Z,12.12
2022-09-23T23:14:16.171Z,12.12
2022-09-23T23:16:43.393Z,12.11
2022-09-23T23:19:13.518Z,12.10
2022-09-23T23:21:43.637Z,12.07
2022-09-23T23:24:19.550Z,12.06
2022-09-23T23:26:46.626Z,12.03
2022-09-23T23:29:16.000Z,12.04
2022-09-23T23:31:42.911Z,12.02
2022-09-23T23:34:16.265Z,12.01
2022-09-23T23:36:44.257Z,11.97
2022-09-23T23:39:12.016Z,11.93
2022-09-23T23:41:39.499Z,11.90
2022-09-23T23:44:07.002Z,11.87
2022-09-23T23:46:33.841Z,11.84
2022-09-23T23:49:00.724Z,11.82
2022-09-23T23:51:27.640Z,11.78
2022-09-23T23:53:54.911Z,11.78
2022-09-23T23:56:23.771Z,11.78
2022-09-23T23:58:57.961Z,11.79
